Time;durP1;ratioP1;P1;durP2;ratioP2;P2;SDS_P1;SDS_P2;PMS_P1;PMS_P2;Temp;Humidity;BMP_temperature;BMP_pressure;BME280_temperature;BME280_humidity;BME280_pressure;Samples;Min_cycle;Max_cycle;Signal;HPM_P1;HPM_P2
2022/04/19 00:00:18;;;;;;;0.40;0.40;;;3.90;1.40;;;4.73;100.00;95091.13;646871;212;31608;-75
2022/04/19 00:03:02;;;;;;;1.40;0.30;;;4.10;1.40;;;4.82;100.00;95090.17;647535;216;31485;-74
2022/04/19 00:05:43;;;;;;;0.70;0.65;;;4.10;1.40;;;4.83;100.00;95089.49;648632;212;31606;-75
2022/04/19 00:08:26;;;;;;;0.80;0.62;;;4.20;1.40;;;4.81;100.00;95084.86;636606;216;31670;-74
2022/04/19 00:11:07;;;;;;;0.85;0.85;;;4.10;1.40;;;4.73;100.00;95080.88;650099;212;31496;-73
2022/04/19 00:13:52;;;;;;;1.20;1.10;;;4.00;1.40;;;4.71;100.00;95074.98;647696;216;31512;-73
2022/04/19 00:16:34;;;;;;;1.15;0.93;;;3.90;1.40;;;4.49;100.00;95068.41;645605;216;31503;-73
2022/04/19 00:19:15;;;;;;;0.80;0.80;;;3.60;1.40;;;4.34;100.00;95064.26;652663;216;31523;-75
2022/04/19 00:21:57;;;;;;;0.50;0.40;;;3.50;1.40;;;4.29;100.00;95057.95;646102;212;31554;-74
2022/04/19 00:24:39;;;;;;;1.10;0.93;;;3.50;1.40;;;4.32;100.00;95056.80;645163;216;31569;-75
2022/04/19 00:27:22;;;;;;;1.05;0.95;;;3.60;1.40;;;4.41;100.00;95049.41;622713;222;31848;-74
2022/04/19 00:30:05;;;;;;;0.80;0.80;;;3.70;1.40;;;4.34;100.00;95054.44;650637;216;31869;-75
2022/04/19 00:32:46;;;;;;;1.20;1.00;;;3.60;1.40;;;4.32;100.00;95052.45;646722;216;31697;-74
2022/04/19 00:35:51;;;;;;;0.80;0.77;;;3.50;1.40;;;4.24;100.00;95048.92;647243;212;31858;-73
2022/04/19 00:38:34;;;;;;;0.90;0.73;;;3.40;1.40;;;4.21;100.00;95049.52;650587;216;31555;-75
2022/04/19 00:41:17;;;;;;;0.70;0.70;;;3.40;1.40;;;4.17;100.00;95042.09;645424;216;31506;-74
2022/04/19 00:43:57;;;;;;;0.70;0.70;;;3.30;1.40;;;4.12;100.00;95038.78;650013;216;31528;-74
2022/04/19 00:46:39;;;;;;;1.20;0.60;;;3.20;1.40;;;4.02;100.00;95036.48;649208;213;31507;-74
2022/04/19 00:49:20;;;;;;;0.50;0.50;;;3.20;1.40;;;3.98;100.00;95029.63;650662;212;31540;-74
2022/04/19 00:52:02;;;;;;;1.40;0.85;;;3.20;1.40;;;3.96;100.00;95027.16;650194;216;31655;-74
2022/04/19 00:54:44;;;;;;;0.70;0.70;;;3.20;1.40;;;4.01;100.00;95026.19;647268;216;32836;-74
2022/04/19 00:57:25;;;;;;;0.70;0.60;;;3.20;1.40;;;4.02;100.00;95022.38;648626;212;32122;-75
2022/04/19 01:00:13;;;;;;;0.60;0.50;;;3.30;1.40;;;4.05;100.00;95017.80;646936;216;31714;-73
2022/04/19 01:02:55;;;;;;;0.62;0.62;;;3.30;1.40;;;4.05;100.00;95015.12;646593;216;31897;-73
2022/04/19 01:05:36;;;;;;;0.60;0.60;;;3.40;1.40;;;4.02;100.00;95011.38;649404;212;31515;-73
2022/04/19 01:08:18;;;;;;;0.70;0.70;;;3.30;1.40;;;4.06;100.00;95002.45;638100;216;31720;-74
2022/04/19 01:13:47;;;;;;;0.80;0.60;;;3.30;1.40;;;4.06;100.00;95002.08;619720;226;31930;-75
2022/04/19 01:16:29;;;;;;;2.12;0.80;;;3.20;1.40;;;4.02;100.00;95002.25;620112;222;31869;-73
2022/04/19 01:19:19;;;;;;;1.30;0.70;;;3.20;1.40;;;4.00;100.00;94994.17;648365;212;31810;-74
2022/04/19 01:22:01;;;;;;;1.10;0.80;;;3.10;1.40;;;3.83;100.00;94990.40;620511;226;32080;-75
2022/04/19 01:24:43;;;;;;;1.00;0.60;;;2.90;1.40;;;3.71;100.00;94986.92;648301;216;31523;-74
2022/04/19 01:27:25;;;;;;;1.00;1.00;;;2.70;1.40;;;3.67;100.00;94981.25;647298;216;31568;-73
2022/04/19 01:30:09;;;;;;;1.90;0.80;;;2.70;1.40;;;3.65;100.00;94980.40;648017;212;31642;-74
2022/04/19 01:32:53;;;;;;;0.60;0.40;;;2.70;1.40;;;3.67;100.00;94978.36;648057;216;31605;-75
2022/04/19 01:35:51;;;;;;;0.70;0.70;;;2.80;1.40;;;3.61;100.00;94986.31;645784;212;31504;-73
2022/04/19 01:38:33;;;;;;;0.73;0.73;;;2.70;1.40;;;3.62;100.00;94979.02;646104;212;31470;-74
2022/04/19 01:41:15;;;;;;;1.20;0.70;;;2.80;1.40;;;3.53;100.00;94982.92;645844;216;31490;-75
2022/04/19 01:43:59;;;;;;;0.70;0.70;;;2.70;1.40;;;3.55;100.00;94976.56;646896;212;31531;-75
2022/04/19 01:46:41;;;;;;;0.70;0.60;;;2.70;1.40;;;3.50;100.00;94972.91;648179;216;31517;-74
2022/04/19 01:49:23;;;;;;;1.30;1.20;;;2.60;1.40;;;3.50;100.00;94972.75;646253;212;31516;-74
2022/04/19 01:52:08;;;;;;;0.90;0.90;;;2.70;1.40;;;3.52;100.00;94966.47;619217;226;31846;-75
2022/04/19 01:54:47;;;;;;;0.80;0.80;;;2.80;1.40;;;3.63;100.00;94961.80;648253;212;31712;-75
2022/04/19 01:57:29;;;;;;;1.70;0.80;;;2.90;1.40;;;3.67;100.00;94963.87;646093;216;31960;-75
2022/04/19 02:00:11;;;;;;;0.80;0.70;;;2.90;1.40;;;3.64;100.00;94961.42;648965;216;31697;-75
2022/04/19 02:02:55;;;;;;;0.82;0.82;;;2.90;1.40;;;3.65;100.00;94963.45;651075;212;31556;-73
2022/04/19 02:05:38;;;;;;;0.70;0.70;;;2.90;1.40;;;3.57;100.00;94959.14;648011;212;31908;-74
2022/04/19 02:08:19;;;;;;;0.70;0.70;;;2.80;1.40;;;3.52;100.00;94957.20;611396;222;32273;-73
2022/04/19 02:11:01;;;;;;;1.12;0.57;;;2.80;1.40;;;3.55;100.00;94954.65;622785;222;32070;-75
2022/04/19 02:13:43;;;;;;;0.80;0.77;;;2.80;1.40;;;3.60;100.00;94956.72;641633;217;32104;-75
2022/04/19 02:16:24;;;;;;;1.30;0.90;;;2.90;1.40;;;3.62;100.00;94960.63;647868;212;32120;-75
2022/04/19 02:19:06;;;;;;;0.45;0.40;;;2.90;1.40;;;3.59;100.00;94956.14;620569;226;32257;-75
2022/04/19 02:21:48;;;;;;;1.20;1.10;;;2.90;1.40;;;3.58;100.00;94954.16;647308;212;31461;-74
2022/04/19 02:24:30;;;;;;;2.10;0.90;;;2.80;1.40;;;3.50;100.00;94958.12;648936;216;31523;-74
2022/04/19 02:27:12;;;;;;;0.68;0.57;;;2.70;1.40;;;3.43;100.00;94959.69;648889;216;31558;-75
2022/04/19 02:29:54;;;;;;;1.35;1.00;;;2.70;1.40;;;3.43;100.00;94958.89;648391;216;31547;-73
2022/04/19 02:32:36;;;;;;;0.50;0.50;;;2.70;1.40;;;3.47;100.00;94961.34;647769;212;36858;-74
2022/04/19 02:35:52;;;;;;;1.35;1.25;;;2.70;1.40;;;3.46;100.00;94957.80;647504;216;31943;-75
2022/04/19 02:38:32;;;;;;;0.60;0.60;;;2.70;1.40;;;3.47;100.00;94953.95;649066;216;31703;-75
2022/04/19 02:41:17;;;;;;;0.93;0.70;;;2.70;1.40;;;3.44;100.00;94951.65;619264;226;31877;-73
2022/04/19 02:43:59;;;;;;;0.60;0.55;;;2.70;1.40;;;3.47;100.00;94958.50;649031;212;31788;-75
2022/04/19 02:46:43;;;;;;;0.47;0.47;;;2.70;1.40;;;3.47;100.00;94952.81;647003;216;31603;-74
2022/04/19 02:49:25;;;;;;;6.37;0.77;;;2.70;1.40;;;3.49;100.00;94951.80;648685;212;31535;-75
2022/04/19 02:52:07;;;;;;;0.80;0.50;;;2.70;1.40;;;3.46;100.00;94954.59;646666;216;42337;-75
2022/04/19 02:54:53;;;;;;;0.57;0.55;;;2.60;1.40;;;3.45;100.00;94951.59;647058;212;31538;-74
2022/04/19 02:57:34;;;;;;;1.20;0.70;;;2.70;1.40;;;3.53;100.00;94951.14;645817;212;31524;-75
2022/04/19 03:00:17;;;;;;;0.73;0.73;;;2.80;1.40;;;3.57;100.00;94954.43;645720;216;31488;-73
2022/04/19 03:02:58;;;;;;;0.50;0.50;;;2.80;1.40;;;3.59;100.00;94955.66;648668;216;31701;-74
2022/04/19 03:08:21;;;;;;;0.70;0.70;;;2.80;1.40;;;3.57;100.00;94954.59;641364;216;31957;-77
2022/04/19 03:11:08;;;;;;;1.50;0.70;;;2.80;1.40;;;3.63;100.00;94952.16;648607;216;31657;-74
2022/04/19 03:13:53;;;;;;;1.20;0.90;;;2.80;1.40;;;3.67;100.00;94946.46;645099;212;31538;-75
2022/04/19 03:16:35;;;;;;;0.70;0.60;;;2.90;1.40;;;3.68;100.00;94940.61;649032;216;31474;-75
2022/04/19 03:19:17;;;;;;;0.50;0.40;;;2.80;1.40;;;3.74;100.00;94940.14;620449;222;32089;-73
2022/04/19 03:21:58;;;;;;;0.68;0.68;;;3.00;1.40;;;3.74;100.00;94937.56;647190;212;35447;-73
2022/04/19 03:30:16;;;;;;;0.50;0.50;;;3.00;1.40;;;3.82;100.00;94938.34;620584;222;31903;-74
2022/04/19 03:32:59;;;;;;;0.80;0.40;;;3.00;1.40;;;3.88;100.00;94932.78;621244;222;31860;-73
2022/04/19 03:35:51;;;;;;;2.83;0.60;;;3.00;1.40;;;3.92;100.00;94932.42;643179;217;31473;-76
2022/04/19 03:38:34;;;;;;;0.45;0.45;;;3.20;1.40;;;4.00;100.00;94933.30;649655;216;32034;-76
2022/04/19 03:43:48;;;;;;;1.10;0.85;;;3.40;1.40;;;4.23;100.00;94926.97;647983;216;31524;-75
2022/04/19 03:47:06;;;;;;;0.60;0.60;;;3.60;1.40;;;4.35;100.00;94925.36;647619;216;31545;-75
2022/04/19 03:49:15;;;;;;;1.20;0.70;;;3.70;1.40;;;4.40;100.00;94928.06;629976;222;31743;-74
2022/04/19 03:51:56;;;;;;;0.80;0.80;;;3.70;1.40;;;4.45;100.00;94929.92;646511;212;31579;-74
2022/04/19 03:54:38;;;;;;;0.60;0.60;;;3.70;1.40;;;4.32;100.00;94928.94;619800;222;32017;-72
2022/04/19 03:57:20;;;;;;;0.70;0.70;;;3.50;1.40;;;4.14;100.00;94929.92;648391;213;31458;-73
2022/04/19 04:00:06;;;;;;;1.33;0.52;;;3.30;1.40;;;4.09;100.00;94930.88;646121;212;31648;-74
2022/04/19 04:02:47;;;;;;;1.80;0.90;;;3.10;1.40;;;3.98;100.00;94928.20;618013;226;32140;-73
2022/04/19 04:05:29;;;;;;;0.50;0.40;;;3.10;1.40;;;3.93;100.00;94931.72;619296;222;32419;-74
2022/04/19 04:08:10;;;;;;;0.70;0.50;;;3.10;1.40;;;3.95;100.00;94935.03;640079;212;31933;-74
2022/04/19 04:10:52;;;;;;;1.00;0.90;;;3.10;1.40;;;4.00;100.00;94935.17;619935;226;32284;-74
2022/04/19 04:13:33;;;;;;;1.10;0.60;;;3.10;1.40;;;3.99;100.00;94933.30;643484;217;32703;-75
2022/04/19 04:16:15;;;;;;;0.65;0.60;;;3.10;1.40;;;4.00;100.00;94935.48;619936;225;31824;-74
2022/04/19 04:18:57;;;;;;;0.65;0.65;;;3.20;1.40;;;4.04;100.00;94937.88;646760;212;31481;-75
2022/04/19 04:21:50;;;;;;;0.70;0.50;;;3.20;1.40;;;4.08;100.00;94938.45;620769;226;31973;-75
2022/04/19 04:24:32;;;;;;;0.60;0.60;;;3.30;1.40;;;4.17;100.00;94941.16;649954;216;31521;-74
2022/04/19 04:27:13;;;;;;;0.80;0.50;;;3.30;1.40;;;4.08;100.00;94943.28;648834;216;31471;-75
2022/04/19 04:29:55;;;;;;;1.30;0.90;;;3.20;1.40;;;4.09;100.00;94937.62;646799;216;31757;-74
2022/04/19 04:32:37;;;;;;;3.80;0.70;;;3.20;1.40;;;4.11;100.00;94937.18;633138;217;31715;-73
2022/04/19 04:35:51;;;;;;;0.88;0.88;;;3.20;1.40;;;4.04;100.00;94933.00;646754;216;31556;-73
2022/04/19 04:38:33;;;;;;;0.40;0.40;;;3.20;1.40;;;4.02;100.00;94934.03;646838;216;31560;-74
2022/04/19 04:43:29;;;;;;;0.68;0.57;;;3.10;1.40;;;3.89;100.00;94932.46;645425;216;31495;-75
2022/04/19 04:51:49;;;;;;;0.40;0.40;;;2.90;1.40;;;3.79;100.00;94930.09;618143;223;33801;-73
2022/04/19 04:54:30;;;;;;;0.90;0.80;;;3.00;1.40;;;3.87;100.00;94931.02;619071;222;31957;-76
2022/04/19 04:57:12;;;;;;;0.50;0.50;;;3.00;1.40;;;3.93;100.00;94930.59;647838;216;31487;-75
2022/04/19 04:59:54;;;;;;;0.80;0.50;;;3.00;1.40;;;3.98;100.00;94932.45;646052;212;42627;-74
2022/04/19 05:02:35;;;;;;;2.30;1.00;;;3.00;1.40;;;4.09;100.00;94931.18;646399;216;31743;-74
2022/04/19 05:05:18;;;;;;;1.10;1.10;;;3.10;1.40;;;4.18;100.00;94927.22;649762;216;31845;-73
2022/04/19 05:08:04;;;;;;;1.30;0.90;;;3.30;1.40;;;4.30;100.00;94922.55;613931;222;32959;-74
2022/04/19 05:10:45;;;;;;;0.68;0.52;;;3.50;1.40;;;4.44;100.00;94924.67;649046;216;42151;-74
2022/04/19 05:13:30;;;;;;;1.00;0.70;;;3.70;1.40;;;4.56;100.00;94922.35;647321;216;31551;-75
2022/04/19 05:16:12;;;;;;;0.60;0.60;;;3.80;1.40;;;4.69;100.00;94923.63;646640;212;31657;-73
2022/04/19 05:18:56;;;;;;;0.70;0.70;;;4.00;1.40;;;4.78;100.00;94925.16;648680;216;31516;-74
2022/04/19 05:21:38;;;;;;;1.00;0.60;;;4.00;1.40;;;4.91;100.00;94927.13;648841;212;42135;-74
2022/04/19 05:24:20;;;;;;;1.20;0.60;;;4.10;1.40;;;4.97;100.00;94925.41;619621;225;32150;-74
2022/04/19 05:27:02;;;;;;;0.60;0.60;;;4.30;1.40;;;5.16;100.00;94922.03;649288;216;31967;-75
2022/04/19 05:29:44;;;;;;;4.20;0.95;;;4.40;1.40;;;5.27;100.00;94919.91;622308;222;32176;-74
2022/04/19 05:32:27;;;;;;;1.70;1.00;;;4.50;1.40;;;5.37;100.00;94916.16;648348;216;31582;-74
2022/04/19 05:35:52;;;;;;;0.62;0.60;;;4.60;1.40;;;5.43;100.00;94919.34;618399;222;32085;-73
2022/04/19 05:38:33;;;;;;;0.90;0.90;;;4.70;1.40;;;5.53;100.00;94918.70;648155;213;31493;-74
2022/04/19 05:41:15;;;;;;;0.60;0.60;;;4.80;1.40;;;5.61;100.00;94919.81;647124;212;31571;-74
2022/04/19 05:43:57;;;;;;;1.00;0.88;;;4.80;1.40;;;5.67;100.00;94919.48;646192;212;31526;-73
2022/04/19 05:46:38;;;;;;;1.40;0.80;;;4.80;1.40;;;5.87;100.00;94927.83;647199;216;31532;-73
2022/04/19 05:49:20;;;;;;;0.75;0.75;;;4.80;1.40;;;5.98;100.00;94925.86;645776;216;31554;-75
2022/04/19 05:52:02;;;;;;;1.62;0.70;;;4.90;1.40;;;6.08;100.00;94929.60;645951;212;31543;-74
2022/04/19 05:54:45;;;;;;;1.00;0.90;;;5.00;1.40;;;6.26;100.00;94932.73;618924;222;31946;-74
2022/04/19 05:57:29;;;;;;;0.70;0.67;;;5.10;1.40;;;6.37;100.00;94932.50;649244;216;31474;-74
2022/04/19 06:00:10;;;;;;;1.60;1.02;;;5.20;1.40;;;6.49;100.00;94938.95;648769;212;31538;-74
2022/04/19 06:05:39;;;;;;;3.28;1.20;;;5.40;1.40;;;6.52;100.00;94941.20;648973;216;42125;-78
2022/04/19 06:08:24;;;;;;;1.70;1.30;;;5.60;1.40;;;6.45;100.00;94943.86;610570;222;32676;-77
2022/04/19 06:11:12;;;;;;;1.20;1.10;;;5.70;1.40;;;6.63;100.00;94940.02;650768;216;42205;-76
2022/04/19 06:13:53;;;;;;;1.70;0.80;;;5.80;1.40;;;6.67;100.00;94938.12;645895;212;31577;-75
2022/04/19 06:19:09;;;;;;;0.80;0.80;;;6.10;1.40;;;7.00;100.00;94932.81;646417;212;31531;-75
2022/04/19 06:21:51;;;;;;;2.50;1.00;;;6.20;1.40;;;7.17;100.00;94936.11;645624;216;31551;-77
2022/04/19 06:24:39;;;;;;;1.35;0.77;;;6.40;1.40;;;7.42;100.00;94927.88;647319;216;31487;-77
2022/04/19 06:27:23;;;;;;;1.30;1.00;;;6.60;1.40;;;7.54;100.00;94925.03;647494;212;31505;-75
2022/04/19 06:30:05;;;;;;;0.90;0.80;;;6.70;1.40;;;7.81;100.00;94924.63;648742;212;31596;-75
2022/04/19 06:32:50;;;;;;;1.93;0.83;;;6.90;1.40;;;7.84;100.00;94924.25;622352;226;31847;-76
2022/04/19 06:35:51;;;;;;;0.68;0.68;;;7.00;1.40;;;7.79;98.69;94925.24;647210;216;31542;-77
2022/04/19 06:38:36;;;;;;;0.80;0.70;;;7.00;1.40;;;7.95;99.25;94932.03;619878;226;32075;-78
2022/04/19 06:41:20;;;;;;;1.20;0.60;;;7.20;1.40;;;8.15;96.47;94927.97;647342;216;31812;-75
2022/04/19 06:44:03;;;;;;;0.75;0.60;;;7.40;1.40;;;8.40;93.20;94922.28;647434;213;31509;-77
2022/04/19 06:46:49;;;;;;;0.63;0.60;;;7.50;1.40;;;8.42;89.66;94920.73;620639;222;32001;-76
2022/04/19 06:49:30;;;;;;;0.80;0.80;;;7.70;1.40;;;8.67;89.25;94915.11;648490;212;31497;-79
2022/04/19 06:52:21;;;;;;;3.08;1.08;;;7.90;1.40;;;8.84;87.66;94916.41;647619;216;31592;-76
2022/04/19 06:55:09;;;;;;;1.00;0.70;;;8.00;1.40;;;9.12;86.48;94912.27;618777;226;31873;-78
2022/04/19 06:57:52;;;;;;;0.98;0.90;;;8.30;1.40;;;9.40;85.28;94912.13;618595;222;31926;-77
2022/04/19 07:00:33;;;;;;;0.83;0.77;;;8.50;1.40;;;9.49;82.55;94903.47;650439;212;31622;-77
2022/04/19 07:03:17;;;;;;;1.00;0.70;;;8.60;1.40;;;9.78;80.90;94907.91;647443;216;31822;-75
2022/04/19 07:05:58;;;;;;;1.70;0.70;;;9.00;1.40;;;9.97;79.38;94907.95;619571;226;31956;-75
2022/04/19 07:08:46;;;;;;;1.10;0.90;;;9.20;1.40;;;10.33;78.47;94905.59;608610;222;32200;-76
2022/04/19 07:11:28;;;;;;;1.90;0.70;;;9.60;1.40;;;10.54;78.30;94906.66;619410;222;31969;-77
2022/04/19 07:14:09;;;;;;;1.63;0.83;;;9.80;1.40;;;10.87;77.96;94901.39;646222;212;31557;-76
2022/04/19 07:16:58;;;;;;;1.60;0.98;;;9.70;1.40;;;10.92;77.44;94898.03;644967;216;31558;-76
2022/04/19 07:28:20;;;;;;;1.37;0.90;;;10.60;1.40;;;11.98;69.70;94900.27;620913;226;32060;-78
2022/04/19 07:35:54;;;;;;;1.23;1.10;;;11.10;1.40;;;12.57;66.50;94903.05;649246;216;31636;-76
2022/04/19 07:38:39;;;;;;;1.00;0.80;;;11.20;1.40;;;12.45;67.09;94902.64;646377;213;42147;-77
2022/04/19 07:41:21;;;;;;;1.60;1.10;;;11.00;1.40;;;12.32;65.00;94901.66;649707;212;31467;-77
2022/04/19 07:44:02;;;;;;;1.10;0.90;;;11.10;1.40;;;12.47;64.02;94895.92;646462;216;31524;-77
2022/04/19 07:46:44;;;;;;;0.80;0.80;;;11.30;1.40;;;12.94;64.58;94897.68;621700;222;31961;-77
2022/04/19 07:49:26;;;;;;;1.50;1.00;;;11.50;1.40;;;13.13;65.06;94891.27;646809;212;31552;-78
2022/04/19 07:52:08;;;;;;;1.77;1.20;;;11.50;1.40;;;13.27;64.74;94892.77;646695;216;31516;-77
2022/04/19 07:54:49;;;;;;;0.70;0.70;;;11.40;1.40;;;13.20;62.99;94891.25;619251;226;31994;-77
2022/04/19 07:57:33;;;;;;;1.10;0.90;;;11.50;1.40;;;13.10;60.33;94890.69;647339;216;33282;-75
2022/04/19 08:00:16;;;;;;;1.50;1.30;;;11.50;1.40;;;13.26;61.43;94888.55;648649;216;31527;-75
2022/04/19 08:02:57;;;;;;;2.20;1.27;;;11.60;1.40;;;13.52;62.25;94889.56;649859;216;39255;-75
2022/04/19 08:05:45;;;;;;;1.60;1.20;;;11.90;1.40;;;13.74;63.26;94892.29;648519;216;31546;-79
2022/04/19 08:08:27;;;;;;;1.70;1.17;;;12.20;1.40;;;13.62;61.05;94890.48;613293;222;32163;-77
2022/04/19 08:13:44;;;;;;;1.17;1.00;;;12.30;1.40;;;13.45;58.30;94884.87;620897;226;32036;-78
2022/04/19 08:16:26;;;;;;;0.70;0.60;;;12.10;1.40;;;13.38;57.48;94884.76;621513;222;42668;-78
2022/04/19 08:19:08;;;;;;;2.35;1.27;;;12.00;1.40;;;13.40;57.42;94889.64;619340;222;31905;-77
2022/04/19 08:21:57;;;;;;;2.30;1.40;;;12.10;1.40;;;13.31;56.78;94885.38;644311;212;42339;-75
2022/04/19 08:24:41;;;;;;;2.35;1.33;;;12.10;1.40;;;13.44;55.28;94877.83;646723;212;31468;-76
2022/04/19 08:27:28;;;;;;;1.85;1.42;;;12.00;1.40;;;13.37;56.00;94879.23;645536;216;38351;-75
2022/04/19 08:30:13;;;;;;;2.97;1.65;;;12.30;1.40;;;13.77;55.82;94876.36;621958;226;31924;-78
2022/04/19 08:32:55;;;;;;;2.00;1.30;;;12.80;1.40;;;13.68;54.04;94871.14;617543;226;34879;-78
2022/04/19 08:35:58;;;;;;;1.30;1.20;;;12.60;1.40;;;14.08;54.64;94872.31;646890;216;31601;-76
2022/04/19 08:38:48;;;;;;;1.15;0.90;;;13.10;1.40;;;14.30;52.88;94867.05;646040;212;42185;-77
2022/04/19 08:41:31;;;;;;;2.10;1.73;;;13.10;1.40;;;14.45;51.77;94868.89;643812;212;32673;-76
2022/04/19 08:44:15;;;;;;;2.83;1.50;;;13.20;1.40;;;14.49;52.11;94864.50;648190;216;31575;-78
2022/04/19 08:47:01;;;;;;;2.47;1.80;;;13.00;1.40;;;14.70;52.83;94864.00;617659;222;31912;-77
2022/04/19 08:49:44;;;;;;;3.20;1.90;;;13.40;1.40;;;14.85;51.38;94865.31;648857;212;31614;-77
2022/04/19 08:52:28;;;;;;;2.12;1.65;;;13.70;1.40;;;15.25;51.10;94863.87;648564;212;42132;-78
2022/04/19 08:57:58;;;;;;;3.42;1.77;;;13.80;1.40;;;14.56;51.19;94859.95;619543;222;31896;-78
2022/04/19 09:00:41;;;;;;;1.60;1.15;;;13.90;1.40;;;15.44;50.56;94857.17;648184;216;31511;-77
2022/04/19 09:03:23;;;;;;;1.37;1.27;;;14.90;1.40;;;16.04;48.57;94850.98;647384;216;31853;-76
2022/04/19 09:06:05;;;;;;;1.73;1.40;;;15.70;1.40;;;15.68;48.41;94859.14;646519;216;32170;-77
2022/04/19 09:09:11;;;;;;;2.75;1.62;;;15.20;1.40;;;16.64;46.82;94863.32;610906;222;32202;-78
2022/04/19 09:11:53;;;;;;;1.60;1.10;;;16.40;1.40;;;17.68;44.83;94854.04;646674;216;31541;-77
2022/04/19 09:14:55;;;;;;;2.60;1.42;;;18.40;1.40;;;18.76;41.82;94848.58;646644;216;42165;-76
2022/04/19 09:17:42;;;;;;;2.35;1.60;;;18.60;1.40;;;18.59;41.78;94849.63;647301;212;31531;-77
2022/04/19 09:20:26;;;;;;;3.75;2.10;;;18.20;1.40;;;19.36;42.30;94843.47;648369;216;31543;-77
2022/04/19 09:23:08;;;;;;;2.90;1.70;;;19.70;1.40;;;21.83;38.09;94837.78;646770;216;31637;-77
2022/04/19 09:25:54;;;;;;;3.10;2.20;;;20.70;1.40;;;21.13;36.92;94840.53;648380;212;31638;-77
2022/04/19 09:28:41;;;;;;;1.92;1.73;;;20.40;1.40;;;22.03;38.25;94839.31;645369;216;31566;-77
2022/04/19 09:31:32;;;;;;;2.50;2.10;;;20.50;1.40;;;22.05;36.07;94839.63;618998;222;31980;-77
2022/04/19 09:35:55;;;;;;;2.40;2.00;;;18.80;1.40;;;19.56;39.07;94837.21;647659;216;31589;-77
2022/04/19 09:38:40;;;;;;;1.73;1.40;;;16.80;1.40;;;18.88;39.45;94834.28;648185;212;31509;-77
2022/04/19 09:41:29;;;;;;;2.10;1.70;;;16.00;1.40;;;18.52;40.53;94836.92;648073;216;31597;-77
2022/04/19 09:44:14;;;;;;;2.50;1.80;;;15.70;1.40;;;18.52;40.38;94830.88;647100;216;31576;-76
2022/04/19 09:47:06;;;;;;;1.50;1.25;;;16.00;1.40;;;18.31;40.52;94829.79;647564;216;32064;-77
2022/04/19 09:49:48;;;;;;;1.90;1.33;;;16.10;1.40;;;19.73;41.20;94824.14;647062;216;31694;-77
2022/04/19 09:52:38;;;;;;;1.65;1.45;;;17.80;1.40;;;19.69;40.22;94823.41;647571;216;31673;-76
2022/04/19 09:55:24;;;;;;;1.87;1.40;;;17.30;1.40;;;20.26;39.67;94822.16;646986;216;32430;-76
2022/04/19 09:58:12;;;;;;;2.77;2.00;;;17.80;1.40;;;20.44;38.85;94816.48;643378;215;31725;-77
2022/04/19 10:00:54;;;;;;;1.92;1.50;;;17.50;1.40;;;19.65;38.11;94819.38;645329;212;31520;-78
2022/04/19 10:09:02;;;;;;;2.90;2.00;;;15.70;1.40;;;18.85;40.94;94822.15;648193;212;32140;-77
2022/04/19 10:11:50;;;;;;;2.05;1.62;;;16.20;1.40;;;19.80;38.71;94819.78;647011;216;31564;-76
2022/04/19 10:14:35;;;;;;;4.57;2.10;;;16.90;1.40;;;18.52;41.19;94818.43;645926;216;31824;-77
2022/04/19 10:17:20;;;;;;;4.10;2.97;;;16.80;1.40;;;18.12;40.70;94816.16;647406;216;32280;-77
2022/04/19 10:20:04;;;;;;;2.08;1.50;;;16.90;1.40;;;19.95;39.40;94807.70;649201;216;31586;-78
2022/04/19 10:22:48;;;;;;;2.60;1.70;;;17.10;1.40;;;20.54;41.05;94805.17;648607;216;33636;-77
2022/04/19 10:25:43;;;;;;;1.85;1.60;;;17.60;1.40;;;20.45;37.56;94806.22;647662;216;31603;-77
2022/04/19 10:28:30;;;;;;;3.47;2.17;;;17.90;1.40;;;20.85;36.09;94803.27;645446;212;31937;-77
2022/04/19 10:31:22;;;;;;;2.53;1.63;;;17.60;1.40;;;20.21;36.92;94802.75;643363;215;35610;-77
2022/04/19 10:36:14;;;;;;;2.53;2.08;;;19.80;1.40;;;21.88;35.79;94795.20;646034;212;31670;-77
2022/04/19 10:39:25;;;;;;;2.37;2.00;;;20.30;1.40;;;22.77;35.06;94788.86;646648;212;42935;-77
2022/04/19 10:42:08;;;;;;;3.33;1.85;;;18.30;1.40;;;22.77;36.79;94789.70;647166;212;31538;-78
2022/04/19 10:44:56;;;;;;;2.70;1.90;;;20.10;1.40;;;22.88;35.00;94787.23;646563;216;42724;-77
2022/04/19 10:48:08;;;;;;;2.28;1.70;;;19.90;1.40;;;22.58;33.46;94783.30;619011;222;43016;-77
2022/04/19 10:50:55;;;;;;;2.40;2.12;;;18.90;1.40;;;21.93;33.55;94783.98;647333;216;31593;-77
2022/04/19 10:53:44;;;;;;;2.50;1.70;;;18.00;1.40;;;21.32;34.35;94790.33;636869;216;31723;-78
2022/04/19 10:56:25;;;;;;;2.10;1.70;;;17.60;1.40;;;20.38;35.44;94786.06;647011;212;31623;-78
2022/04/19 10:59:21;;;;;;;1.73;1.50;;;16.70;1.40;;;19.38;36.49;94781.25;619469;222;31912;-77
2022/04/19 11:02:03;;;;;;;2.57;1.97;;;16.20;1.40;;;21.00;35.89;94785.38;647371;216;42206;-77
2022/04/19 11:04:45;;;;;;;1.62;1.52;;;19.10;1.40;;;20.89;35.79;94778.94;647161;212;31766;-78
2022/04/19 11:07:41;;;;;;;2.47;1.90;;;18.70;1.40;;;21.77;34.22;94769.66;614309;226;32164;-77
2022/04/19 11:13:00;;;;;;;3.90;2.50;;;22.20;1.40;;;24.79;32.49;94756.92;615838;226;31879;-77
2022/04/19 11:15:58;;;;;;;3.00;2.03;;;21.40;1.40;;;25.49;31.37;94759.59;647211;216;31562;-77
2022/04/19 11:19:00;;;;;;;2.62;1.95;;;21.30;1.40;;;24.77;32.46;94749.14;619514;226;32483;-78
2022/04/19 11:21:46;;;;;;;2.63;1.70;;;20.80;1.40;;;22.78;32.51;94748.53;616782;230;23569;-77
2022/04/19 11:29:22;;;;;;;1.73;1.33;;;19.00;1.40;;;20.58;33.78;94747.55;647349;216;32234;-77
2022/04/19 11:36:02;;;;;;;1.80;1.50;;;18.80;1.40;;;19.89;34.05;94744.50;640736;217;32136;-77
2022/04/19 11:38:49;;;;;;;2.67;1.50;;;18.00;1.40;;;20.62;33.23;94742.48;647226;216;31585;-78
2022/04/19 11:47:08;;;;;;;2.12;1.58;;;18.60;1.40;;;22.94;34.12;94731.41;647983;212;31709;-78
2022/04/19 11:49:55;;;;;;;1.90;1.80;;;21.70;1.40;;;23.18;33.12;94731.55;620593;226;31884;-78
2022/04/19 11:52:36;;;;;;;2.47;1.95;;;19.40;1.40;;;22.36;32.02;94731.92;619015;226;32539;-78
2022/04/19 11:55:27;;;;;;;2.50;2.15;;;18.80;1.40;;;22.50;32.64;94731.09;647730;216;31588;-77
2022/04/19 11:58:14;;;;;;;2.90;1.98;;;19.40;1.40;;;24.16;31.20;94723.30;646972;216;31555;-78
2022/04/19 12:01:00;;;;;;;3.10;2.30;;;22.10;1.40;;;24.60;30.99;94715.20;648499;212;32681;-78
2022/04/19 12:03:40;;;;;;;2.55;2.00;;;22.50;1.40;;;25.04;30.24;94724.33;647037;216;31607;-77
2022/04/19 12:06:28;;;;;;;3.90;2.30;;;21.30;1.40;;;23.83;30.28;94725.58;618683;226;31885;-77
2022/04/19 12:09:17;;;;;;;2.90;2.30;;;20.60;1.40;;;25.33;29.25;94715.67;620165;226;31982;-78
2022/04/19 12:11:57;;;;;;;3.30;2.50;;;21.80;1.40;;;25.95;28.77;94707.84;648988;216;31692;-78
2022/04/19 12:14:43;;;;;;;3.35;2.80;;;21.20;1.40;;;24.08;29.81;94725.85;648239;216;31687;-78
2022/04/19 12:17:25;;;;;;;4.32;2.30;;;19.90;1.40;;;24.75;29.34;94712.78;648597;216;31708;-77
2022/04/19 12:20:13;;;;;;;2.15;1.95;;;20.90;1.40;;;25.57;29.55;94709.30;645893;216;32073;-78
2022/04/19 12:23:00;;;;;;;5.37;2.12;;;21.70;1.40;;;27.31;28.82;94693.12;646293;216;31760;-78
2022/04/19 12:25:42;;;;;;;3.40;2.40;;;22.90;1.40;;;24.29;29.33;94710.08;648021;216;31751;-77
2022/04/19 12:28:38;;;;;;;2.40;2.20;;;20.50;1.40;;;25.06;29.56;94700.58;646643;216;31598;-77
2022/04/19 12:31:35;;;;;;;2.50;2.20;;;20.70;1.40;;;22.94;31.75;94699.83;619479;222;32014;-78
2022/04/19 12:36:00;;;;;;;2.85;2.62;;;18.60;1.40;;;22.95;31.71;94701.86;646334;212;31702;-77
2022/04/19 12:38:42;;;;;;;3.80;2.33;;;19.20;1.40;;;24.14;30.28;94690.11;647466;216;31544;-78
2022/04/19 12:41:24;;;;;;;3.00;2.40;;;19.70;1.40;;;21.39;34.41;94686.28;618948;226;31865;-77
2022/04/19 12:44:07;;;;;;;3.20;2.80;;;18.90;1.40;;;20.68;33.26;94698.00;620334;222;31916;-77
2022/04/19 12:46:55;;;;;;;5.70;2.35;;;17.50;1.40;;;20.54;34.36;94694.94;647646;216;31625;-77
2022/04/19 12:49:44;;;;;;;2.58;2.33;;;18.30;1.40;;;22.28;31.55;94687.73;647369;216;31607;-78
2022/04/19 12:52:31;;;;;;;2.25;2.00;;;19.00;1.40;;;21.00;31.92;94687.43;646762;216;31609;-77
2022/04/19 12:55:13;;;;;;;3.00;2.05;;;17.70;1.40;;;19.42;34.04;94687.63;646992;216;31694;-77
2022/04/19 12:58:05;;;;;;;2.65;1.95;;;17.20;1.40;;;19.40;33.22;94677.79;616618;226;32053;-76